» Metar & Tafor

16 November 2020
METAR
Pukul :
Isi :
METAR WAGI 200430Z 14004KT 9999 SCT015 32/24 Q1010 NOSIG=

10 Juni 2019
TAFOR
Pukul : 00 - 12 UTC
Isi :

TAF WAGI 192300Z 2000/2012 24005KT 9000 SCT015 TEMPO 2006/2012 00000KT BKN014=


Hal: << First | < Prev | 1 | Next > | Last >>